sensor_id;sensor_type;location;lat;lon;timestamp;P1;durP1;ratioP1;P2;durP2;ratioP2
69434;SDS011;56625;54.322;18.582;2022-08-02T00:01:01;5.90;;;2.10;;
69434;SDS011;56625;54.322;18.582;2022-08-02T00:03:29;8.20;;;2.50;;
69434;SDS011;56625;54.322;18.582;2022-08-02T00:05:59;7.30;;;2.90;;
69434;SDS011;56625;54.322;18.582;2022-08-02T00:08:27;9.30;;;2.50;;
69434;SDS011;56625;54.322;18.582;2022-08-02T00:10:55;8.80;;;2.70;;
69434;SDS011;56625;54.322;18.582;2022-08-02T00:13:22;8.20;;;2.40;;
69434;SDS011;56625;54.322;18.582;2022-08-02T00:15:50;10.10;;;2.50;;
69434;SDS011;56625;54.322;18.582;2022-08-02T00:18:18;6.50;;;2.20;;
69434;SDS011;56625;54.322;18.582;2022-08-02T00:20:46;7.30;;;2.20;;
69434;SDS011;56625;54.322;18.582;2022-08-02T00:23:14;6.50;;;2.30;;
69434;SDS011;56625;54.322;18.582;2022-08-02T00:25:42;7.70;;;2.40;;
69434;SDS011;56625;54.322;18.582;2022-08-02T00:28:23;7.20;;;2.60;;
69434;SDS011;56625;54.322;18.582;2022-08-02T00:30:55;7.10;;;2.40;;
69434;SDS011;56625;54.322;18.582;2022-08-02T00:33:25;7.00;;;2.20;;
69434;SDS011;56625;54.322;18.582;2022-08-02T00:36:13;6.60;;;2.20;;
69434;SDS011;56625;54.322;18.582;2022-08-02T00:38:41;7.10;;;2.20;;
69434;SDS011;56625;54.322;18.582;2022-08-02T00:41:16;6.40;;;2.40;;
69434;SDS011;56625;54.322;18.582;2022-08-02T00:43:46;4.60;;;1.70;;
69434;SDS011;56625;54.322;18.582;2022-08-02T00:46:16;6.60;;;2.20;;
69434;SDS011;56625;54.322;18.582;2022-08-02T00:48:45;6.90;;;2.00;;
69434;SDS011;56625;54.322;18.582;2022-08-02T00:51:15;6.90;;;2.40;;
69434;SDS011;56625;54.322;18.582;2022-08-02T00:53:43;6.00;;;2.40;;
69434;SDS011;56625;54.322;18.582;2022-08-02T00:56:11;5.90;;;2.10;;
69434;SDS011;56625;54.322;18.582;2022-08-02T00:58:40;7.30;;;2.20;;
69434;SDS011;56625;54.322;18.582;2022-08-02T01:01:07;5.90;;;2.20;;
69434;SDS011;56625;54.322;18.582;2022-08-02T01:03:35;5.60;;;1.80;;
69434;SDS011;56625;54.322;18.582;2022-08-02T01:06:03;5.50;;;2.30;;
69434;SDS011;56625;54.322;18.582;2022-08-02T01:08:39;6.10;;;2.10;;
69434;SDS011;56625;54.322;18.582;2022-08-02T01:11:10;5.60;;;1.90;;
69434;SDS011;56625;54.322;18.582;2022-08-02T01:13:38;5.10;;;1.80;;
69434;SDS011;56625;54.322;18.582;2022-08-02T01:16:13;5.30;;;2.10;;
69434;SDS011;56625;54.322;18.582;2022-08-02T01:18:51;5.60;;;2.10;;
69434;SDS011;56625;54.322;18.582;2022-08-02T01:21:32;6.20;;;2.70;;
69434;SDS011;56625;54.322;18.582;2022-08-02T01:24:18;5.90;;;2.40;;
69434;SDS011;56625;54.322;18.582;2022-08-02T01:30:00;8.00;;;2.90;;
69434;SDS011;56625;54.322;18.582;2022-08-02T01:32:35;7.80;;;3.20;;
69434;SDS011;56625;54.322;18.582;2022-08-02T01:35:10;7.00;;;3.10;;
69434;SDS011;56625;54.322;18.582;2022-08-02T01:40:33;8.50;;;3.00;;
69434;SDS011;56625;54.322;18.582;2022-08-02T01:43:05;7.50;;;3.00;;
69434;SDS011;56625;54.322;18.582;2022-08-02T01:45:40;7.10;;;3.10;;
69434;SDS011;56625;54.322;18.582;2022-08-02T01:48:11;6.80;;;3.00;;
69434;SDS011;56625;54.322;18.582;2022-08-02T01:50:44;7.20;;;3.00;;
69434;SDS011;56625;54.322;18.582;2022-08-02T01:53:17;7.40;;;3.00;;
69434;SDS011;56625;54.322;18.582;2022-08-02T01:55:50;7.10;;;3.00;;
69434;SDS011;56625;54.322;18.582;2022-08-02T01:58:28;7.80;;;2.80;;
69434;SDS011;56625;54.322;18.582;2022-08-02T02:00:59;8.10;;;2.70;;
69434;SDS011;56625;54.322;18.582;2022-08-02T02:03:30;8.10;;;3.20;;
69434;SDS011;56625;54.322;18.582;2022-08-02T02:06:02;7.30;;;3.10;;
69434;SDS011;56625;54.322;18.582;2022-08-02T02:08:37;7.10;;;2.90;;
69434;SDS011;56625;54.322;18.582;2022-08-02T02:11:07;8.20;;;2.80;;
69434;SDS011;56625;54.322;18.582;2022-08-02T02:14:01;6.90;;;3.10;;
69434;SDS011;56625;54.322;18.582;2022-08-02T02:16:31;6.80;;;3.00;;
69434;SDS011;56625;54.322;18.582;2022-08-02T02:19:01;8.10;;;2.90;;
69434;SDS011;56625;54.322;18.582;2022-08-02T02:21:30;6.30;;;2.80;;
69434;SDS011;56625;54.322;18.582;2022-08-02T02:24:02;6.50;;;2.70;;
69434;SDS011;56625;54.322;18.582;2022-08-02T02:26:35;7.10;;;2.70;;
69434;SDS011;56625;54.322;18.582;2022-08-02T02:29:10;8.60;;;2.90;;
69434;SDS011;56625;54.322;18.582;2022-08-02T02:31:40;5.40;;;2.70;;
69434;SDS011;56625;54.322;18.582;2022-08-02T02:34:14;6.60;;;2.70;;
69434;SDS011;56625;54.322;18.582;2022-08-02T02:36:48;6.70;;;2.70;;
69434;SDS011;56625;54.322;18.582;2022-08-02T02:39:21;6.40;;;2.80;;
69434;SDS011;56625;54.322;18.582;2022-08-02T02:41:52;6.40;;;2.70;;
69434;SDS011;56625;54.322;18.582;2022-08-02T02:44:23;5.40;;;2.30;;
69434;SDS011;56625;54.322;18.582;2022-08-02T02:46:53;6.40;;;2.80;;
69434;SDS011;56625;54.322;18.582;2022-08-02T02:49:22;6.50;;;2.60;;
69434;SDS011;56625;54.322;18.582;2022-08-02T02:51:52;6.90;;;2.70;;
69434;SDS011;56625;54.322;18.582;2022-08-02T02:54:21;7.10;;;2.90;;
69434;SDS011;56625;54.322;18.582;2022-08-02T02:57:02;6.20;;;2.40;;
69434;SDS011;56625;54.322;18.582;2022-08-02T02:59:35;7.90;;;2.80;;
69434;SDS011;56625;54.322;18.582;2022-08-02T03:02:17;6.80;;;2.50;;
69434;SDS011;56625;54.322;18.582;2022-08-02T03:04:46;5.70;;;2.60;;
69434;SDS011;56625;54.322;18.582;2022-08-02T03:07:25;6.70;;;2.50;;
69434;SDS011;56625;54.322;18.582;2022-08-02T03:09:53;7.20;;;2.40;;
69434;SDS011;56625;54.322;18.582;2022-08-02T03:12:23;6.30;;;2.20;;
69434;SDS011;56625;54.322;18.582;2022-08-02T03:14:59;7.50;;;2.60;;
69434;SDS011;56625;54.322;18.582;2022-08-02T03:17:39;6.30;;;2.20;;
69434;SDS011;56625;54.322;18.582;2022-08-02T03:20:12;5.80;;;2.10;;
69434;SDS011;56625;54.322;18.582;2022-08-02T03:22:42;7.50;;;2.20;;
69434;SDS011;56625;54.322;18.582;2022-08-02T03:25:12;5.60;;;2.30;;
69434;SDS011;56625;54.322;18.582;2022-08-02T03:27:42;7.70;;;2.60;;
69434;SDS011;56625;54.322;18.582;2022-08-02T03:30:11;7.00;;;2.50;;
69434;SDS011;56625;54.322;18.582;2022-08-02T03:32:46;7.10;;;2.20;;
69434;SDS011;56625;54.322;18.582;2022-08-02T03:35:16;6.60;;;2.80;;
69434;SDS011;56625;54.322;18.582;2022-08-02T03:37:54;7.00;;;2.60;;
69434;SDS011;56625;54.322;18.582;2022-08-02T03:40:24;7.80;;;2.70;;
69434;SDS011;56625;54.322;18.582;2022-08-02T03:42:53;6.00;;;2.30;;
69434;SDS011;56625;54.322;18.582;2022-08-02T03:45:23;6.10;;;2.30;;
69434;SDS011;56625;54.322;18.582;2022-08-02T03:47:52;7.30;;;2.80;;
69434;SDS011;56625;54.322;18.582;2022-08-02T03:50:26;6.80;;;2.30;;
69434;SDS011;56625;54.322;18.582;2022-08-02T03:52:55;7.20;;;2.20;;
69434;SDS011;56625;54.322;18.582;2022-08-02T03:55:23;8.50;;;2.80;;
69434;SDS011;56625;54.322;18.582;2022-08-02T03:57:52;7.10;;;2.20;;
69434;SDS011;56625;54.322;18.582;2022-08-02T04:00:21;6.20;;;2.10;;
69434;SDS011;56625;54.322;18.582;2022-08-02T04:02:50;6.10;;;2.30;;
69434;SDS011;56625;54.322;18.582;2022-08-02T04:05:19;5.70;;;2.20;;
69434;SDS011;56625;54.322;18.582;2022-08-02T04:07:47;6.40;;;2.20;;
69434;SDS011;56625;54.322;18.582;2022-08-02T04:10:35;6.50;;;2.10;;
69434;SDS011;56625;54.322;18.582;2022-08-02T04:13:25;6.80;;;1.90;;
69434;SDS011;56625;54.322;18.582;2022-08-02T04:16:07;5.90;;;1.80;;
69434;SDS011;56625;54.322;18.582;2022-08-02T04:18:47;13.20;;;2.10;;
69434;SDS011;56625;54.322;18.582;2022-08-02T04:21:23;8.40;;;1.80;;
69434;SDS011;56625;54.322;18.582;2022-08-02T04:24:15;7.70;;;1.70;;
69434;SDS011;56625;54.322;18.582;2022-08-02T04:26:45;6.70;;;1.40;;
69434;SDS011;56625;54.322;18.582;2022-08-02T04:29:17;6.80;;;1.60;;
69434;SDS011;56625;54.322;18.582;2022-08-02T04:31:45;8.20;;;1.70;;
69434;SDS011;56625;54.322;18.582;2022-08-02T04:34:14;7.90;;;1.40;;
69434;SDS011;56625;54.322;18.582;2022-08-02T04:36:42;7.20;;;1.50;;
69434;SDS011;56625;54.322;18.582;2022-08-02T04:39:10;10.30;;;2.00;;
69434;SDS011;56625;54.322;18.582;2022-08-02T04:41:45;7.30;;;1.30;;
69434;SDS011;56625;54.322;18.582;2022-08-02T04:44:14;7.80;;;1.30;;
69434;SDS011;56625;54.322;18.582;2022-08-02T04:46:43;9.20;;;1.70;;
69434;SDS011;56625;54.322;18.582;2022-08-02T04:49:11;7.40;;;1.80;;
69434;SDS011;56625;54.322;18.582;2022-08-02T04:51:41;8.30;;;1.40;;
69434;SDS011;56625;54.322;18.582;2022-08-02T04:54:10;6.40;;;1.00;;
69434;SDS011;56625;54.322;18.582;2022-08-02T04:56:38;8.30;;;1.50;;
69434;SDS011;56625;54.322;18.582;2022-08-02T04:59:08;7.80;;;1.50;;
69434;SDS011;56625;54.322;18.582;2022-08-02T05:01:36;7.40;;;1.50;;
69434;SDS011;56625;54.322;18.582;2022-08-02T05:04:05;11.10;;;1.90;;
69434;SDS011;56625;54.322;18.582;2022-08-02T05:06:33;7.20;;;1.30;;
69434;SDS011;56625;54.322;18.582;2022-08-02T05:09:01;7.50;;;1.50;;
69434;SDS011;56625;54.322;18.582;2022-08-02T05:11:29;4.80;;;1.00;;
69434;SDS011;56625;54.322;18.582;2022-08-02T05:14:04;7.70;;;1.40;;
69434;SDS011;56625;54.322;18.582;2022-08-02T05:16:32;7.10;;;1.20;;
69434;SDS011;56625;54.322;18.582;2022-08-02T05:19:01;9.00;;;1.30;;
69434;SDS011;56625;54.322;18.582;2022-08-02T05:21:29;7.50;;;1.30;;
69434;SDS011;56625;54.322;18.582;2022-08-02T05:23:58;5.70;;;1.00;;
69434;SDS011;56625;54.322;18.582;2022-08-02T05:26:26;7.30;;;1.30;;
69434;SDS011;56625;54.322;18.582;2022-08-02T05:28:54;6.50;;;1.40;;
69434;SDS011;56625;54.322;18.582;2022-08-02T05:31:22;7.60;;;1.20;;
69434;SDS011;56625;54.322;18.582;2022-08-02T05:33:50;9.50;;;1.40;;
69434;SDS011;56625;54.322;18.582;2022-08-02T05:36:18;6.90;;;1.10;;
69434;SDS011;56625;54.322;18.582;2022-08-02T05:38:48;8.00;;;1.50;;
69434;SDS011;56625;54.322;18.582;2022-08-02T05:41:31;6.50;;;1.00;;
69434;SDS011;56625;54.322;18.582;2022-08-02T05:43:59;8.00;;;1.50;;
69434;SDS011;56625;54.322;18.582;2022-08-02T05:46:27;5.40;;;0.90;;
69434;SDS011;56625;54.322;18.582;2022-08-02T05:48:55;8.40;;;1.20;;
69434;SDS011;56625;54.322;18.582;2022-08-02T05:51:38;9.90;;;1.30;;
69434;SDS011;56625;54.322;18.582;2022-08-02T05:54:15;6.90;;;1.00;;
69434;SDS011;56625;54.322;18.582;2022-08-02T05:57:00;7.40;;;1.20;;
69434;SDS011;56625;54.322;18.582;2022-08-02T06:00:02;7.60;;;1.30;;
69434;SDS011;56625;54.322;18.582;2022-08-02T06:03:02;6.50;;;1.10;;
69434;SDS011;56625;54.322;18.582;2022-08-02T06:05:39;7.00;;;1.20;;
69434;SDS011;56625;54.322;18.582;2022-08-02T06:08:08;7.70;;;1.40;;
69434;SDS011;56625;54.322;18.582;2022-08-02T06:10:39;8.20;;;1.10;;
69434;SDS011;56625;54.322;18.582;2022-08-02T06:13:10;8.70;;;1.10;;
69434;SDS011;56625;54.322;18.582;2022-08-02T06:15:44;10.00;;;1.30;;
69434;SDS011;56625;54.322;18.582;2022-08-02T06:18:20;10.40;;;1.00;;
69434;SDS011;56625;54.322;18.582;2022-08-02T06:20:57;10.60;;;1.00;;
69434;SDS011;56625;54.322;18.582;2022-08-02T06:23:47;7.20;;;1.00;;
69434;SDS011;56625;54.322;18.582;2022-08-02T06:26:27;9.20;;;1.30;;
69434;SDS011;56625;54.322;18.582;2022-08-02T06:28:56;7.00;;;0.80;;
69434;SDS011;56625;54.322;18.582;2022-08-02T06:31:24;5.10;;;0.70;;
69434;SDS011;56625;54.322;18.582;2022-08-02T06:33:52;7.40;;;0.90;;
69434;SDS011;56625;54.322;18.582;2022-08-02T06:36:36;7.60;;;0.80;;
69434;SDS011;56625;54.322;18.582;2022-08-02T06:39:20;7.70;;;1.00;;
69434;SDS011;56625;54.322;18.582;2022-08-02T06:42:12;6.40;;;2.00;;
69434;SDS011;56625;54.322;18.582;2022-08-02T06:44:53;12.20;;;1.70;;
69434;SDS011;56625;54.322;18.582;2022-08-02T06:47:25;8.90;;;1.00;;
69434;SDS011;56625;54.322;18.582;2022-08-02T06:49:54;4.70;;;0.60;;
69434;SDS011;56625;54.322;18.582;2022-08-02T06:52:25;6.90;;;1.00;;
69434;SDS011;56625;54.322;18.582;2022-08-02T06:55:00;7.50;;;0.80;;
69434;SDS011;56625;54.322;18.582;2022-08-02T06:57:31;8.20;;;1.20;;
69434;SDS011;56625;54.322;18.582;2022-08-02T07:00:00;8.10;;;1.00;;
69434;SDS011;56625;54.322;18.582;2022-08-02T07:02:31;6.60;;;1.20;;
69434;SDS011;56625;54.322;18.582;2022-08-02T07:04:59;5.40;;;0.80;;
69434;SDS011;56625;54.322;18.582;2022-08-02T07:07:27;5.30;;;0.90;;
69434;SDS011;56625;54.322;18.582;2022-08-02T07:09:55;6.20;;;0.70;;
69434;SDS011;56625;54.322;18.582;2022-08-02T07:12:29;4.90;;;0.70;;
69434;SDS011;56625;54.322;18.582;2022-08-02T07:15:01;19.20;;;2.20;;
69434;SDS011;56625;54.322;18.582;2022-08-02T07:17:33;9.70;;;0.90;;
69434;SDS011;56625;54.322;18.582;2022-08-02T07:20:02;6.70;;;1.10;;
69434;SDS011;56625;54.322;18.582;2022-08-02T07:22:30;15.00;;;1.10;;
69434;SDS011;56625;54.322;18.582;2022-08-02T07:25:00;15.50;;;1.40;;
69434;SDS011;56625;54.322;18.582;2022-08-02T07:27:28;9.50;;;0.80;;
69434;SDS011;56625;54.322;18.582;2022-08-02T07:29:57;6.90;;;0.80;;
69434;SDS011;56625;54.322;18.582;2022-08-02T07:32:30;6.60;;;1.20;;
69434;SDS011;56625;54.322;18.582;2022-08-02T07:35:00;8.20;;;1.80;;
69434;SDS011;56625;54.322;18.582;2022-08-02T07:37:35;5.40;;;0.90;;
69434;SDS011;56625;54.322;18.582;2022-08-02T07:40:24;5.70;;;0.70;;
69434;SDS011;56625;54.322;18.582;2022-08-02T07:42:54;5.00;;;0.70;;
69434;SDS011;56625;54.322;18.582;2022-08-02T07:45:31;7.40;;;0.80;;
69434;SDS011;56625;54.322;18.582;2022-08-02T07:48:02;6.60;;;0.70;;
69434;SDS011;56625;54.322;18.582;2022-08-02T07:50:30;8.50;;;1.10;;
69434;SDS011;56625;54.322;18.582;2022-08-02T07:53:00;6.90;;;0.70;;
69434;SDS011;56625;54.322;18.582;2022-08-02T07:55:28;6.10;;;1.00;;
69434;SDS011;56625;54.322;18.582;2022-08-02T07:58:10;10.50;;;1.10;;
69434;SDS011;56625;54.322;18.582;2022-08-02T08:00:42;4.80;;;0.80;;
69434;SDS011;56625;54.322;18.582;2022-08-02T08:03:11;9.10;;;1.20;;
69434;SDS011;56625;54.322;18.582;2022-08-02T08:05:39;5.70;;;0.80;;
69434;SDS011;56625;54.322;18.582;2022-08-02T08:08:08;10.90;;;1.30;;
69434;SDS011;56625;54.322;18.582;2022-08-02T08:10:44;3.40;;;0.60;;
69434;SDS011;56625;54.322;18.582;2022-08-02T08:13:13;6.90;;;0.70;;
69434;SDS011;56625;54.322;18.582;2022-08-02T08:15:42;6.50;;;0.80;;
69434;SDS011;56625;54.322;18.582;2022-08-02T08:18:20;3.90;;;0.60;;
69434;SDS011;56625;54.322;18.582;2022-08-02T08:20:49;17.20;;;1.40;;
69434;SDS011;56625;54.322;18.582;2022-08-02T08:23:18;4.00;;;0.70;;
69434;SDS011;56625;54.322;18.582;2022-08-02T08:25:46;5.90;;;0.70;;
69434;SDS011;56625;54.322;18.582;2022-08-02T08:28:14;5.00;;;0.80;;
69434;SDS011;56625;54.322;18.582;2022-08-02T08:30:42;5.40;;;0.60;;
69434;SDS011;56625;54.322;18.582;2022-08-02T08:33:10;11.80;;;1.00;;
69434;SDS011;56625;54.322;18.582;2022-08-02T08:35:38;5.50;;;0.80;;
69434;SDS011;56625;54.322;18.582;2022-08-02T08:38:06;10.90;;;0.90;;
69434;SDS011;56625;54.322;18.582;2022-08-02T08:40:35;7.50;;;0.80;;
69434;SDS011;56625;54.322;18.582;2022-08-02T08:43:04;7.50;;;0.70;;
69434;SDS011;56625;54.322;18.582;2022-08-02T08:45:33;7.60;;;0.90;;
69434;SDS011;56625;54.322;18.582;2022-08-02T08:48:13;3.80;;;0.40;;
69434;SDS011;56625;54.322;18.582;2022-08-02T08:51:06;13.50;;;1.00;;
69434;SDS011;56625;54.322;18.582;2022-08-02T08:53:41;8.90;;;0.70;;
69434;SDS011;56625;54.322;18.582;2022-08-02T08:56:11;5.20;;;0.60;;
69434;SDS011;56625;54.322;18.582;2022-08-02T08:58:44;7.60;;;0.60;;
69434;SDS011;56625;54.322;18.582;2022-08-02T09:01:14;5.60;;;0.60;;
69434;SDS011;56625;54.322;18.582;2022-08-02T09:03:43;6.80;;;0.70;;
69434;SDS011;56625;54.322;18.582;2022-08-02T09:06:11;4.60;;;0.60;;
69434;SDS011;56625;54.322;18.582;2022-08-02T09:08:39;7.40;;;0.70;;
69434;SDS011;56625;54.322;18.582;2022-08-02T09:11:19;4.30;;;0.50;;
69434;SDS011;56625;54.322;18.582;2022-08-02T09:13:52;4.00;;;0.40;;
69434;SDS011;56625;54.322;18.582;2022-08-02T09:16:40;14.10;;;1.20;;
69434;SDS011;56625;54.322;18.582;2022-08-02T09:19:24;6.10;;;0.60;;
69434;SDS011;56625;54.322;18.582;2022-08-02T09:22:04;13.60;;;1.70;;
69434;SDS011;56625;54.322;18.582;2022-08-02T09:24:48;5.70;;;0.60;;
69434;SDS011;56625;54.322;18.582;2022-08-02T09:27:20;6.40;;;0.70;;
69434;SDS011;56625;54.322;18.582;2022-08-02T09:29:53;5.60;;;0.70;;
69434;SDS011;56625;54.322;18.582;2022-08-02T09:32:44;4.50;;;0.50;;
69434;SDS011;56625;54.322;18.582;2022-08-02T09:35:39;7.40;;;0.60;;
69434;SDS011;56625;54.322;18.582;2022-08-02T09:38:27;5.10;;;0.50;;
69434;SDS011;56625;54.322;18.582;2022-08-02T09:40:56;4.90;;;0.60;;
69434;SDS011;56625;54.322;18.582;2022-08-02T09:43:38;10.20;;;1.20;;
69434;SDS011;56625;54.322;18.582;2022-08-02T09:46:30;7.40;;;0.90;;
69434;SDS011;56625;54.322;18.582;2022-08-02T09:49:02;5.10;;;0.80;;
69434;SDS011;56625;54.322;18.582;2022-08-02T09:51:46;4.90;;;0.60;;
69434;SDS011;56625;54.322;18.582;2022-08-02T09:54:23;5.10;;;0.60;;
69434;SDS011;56625;54.322;18.582;2022-08-02T09:56:54;6.20;;;0.70;;
69434;SDS011;56625;54.322;18.582;2022-08-02T09:59:25;7.90;;;0.50;;
69434;SDS011;56625;54.322;18.582;2022-08-02T10:01:56;5.50;;;0.60;;
69434;SDS011;56625;54.322;18.582;2022-08-02T10:04:44;4.00;;;0.60;;
69434;SDS011;56625;54.322;18.582;2022-08-02T10:07:21;4.50;;;0.50;;
69434;SDS011;56625;54.322;18.582;2022-08-02T10:09:50;4.80;;;0.50;;
69434;SDS011;56625;54.322;18.582;2022-08-02T10:12:19;6.70;;;0.70;;
69434;SDS011;56625;54.322;18.582;2022-08-02T10:14:50;4.80;;;0.60;;
69434;SDS011;56625;54.322;18.582;2022-08-02T10:17:19;4.40;;;0.80;;
69434;SDS011;56625;54.322;18.582;2022-08-02T10:19:48;4.50;;;0.60;;
69434;SDS011;56625;54.322;18.582;2022-08-02T10:22:32;4.50;;;0.50;;
69434;SDS011;56625;54.322;18.582;2022-08-02T10:25:05;7.00;;;1.00;;
69434;SDS011;56625;54.322;18.582;2022-08-02T10:27:34;10.70;;;1.00;;
69434;SDS011;56625;54.322;18.582;2022-08-02T10:30:23;6.70;;;0.70;;
69434;SDS011;56625;54.322;18.582;2022-08-02T10:32:56;7.40;;;0.80;;
69434;SDS011;56625;54.322;18.582;2022-08-02T10:35:28;5.70;;;1.00;;
69434;SDS011;56625;54.322;18.582;2022-08-02T10:38:05;5.20;;;0.60;;
69434;SDS011;56625;54.322;18.582;2022-08-02T10:40:47;6.00;;;0.70;;
69434;SDS011;56625;54.322;18.582;2022-08-02T10:46:34;5.80;;;0.90;;
69434;SDS011;56625;54.322;18.582;2022-08-02T10:49:17;6.10;;;1.90;;
69434;SDS011;56625;54.322;18.582;2022-08-02T10:52:07;4.90;;;0.70;;
69434;SDS011;56625;54.322;18.582;2022-08-02T10:54:38;8.80;;;0.80;;
69434;SDS011;56625;54.322;18.582;2022-08-02T10:57:19;7.50;;;0.80;;
69434;SDS011;56625;54.322;18.582;2022-08-02T10:59:51;5.70;;;0.80;;
69434;SDS011;56625;54.322;18.582;2022-08-02T11:02:37;10.70;;;0.90;;
69434;SDS011;56625;54.322;18.582;2022-08-02T11:05:09;4.50;;;0.90;;
69434;SDS011;56625;54.322;18.582;2022-08-02T11:07:47;4.60;;;0.80;;
69434;SDS011;56625;54.322;18.582;2022-08-02T11:13:03;4.40;;;0.50;;
69434;SDS011;56625;54.322;18.582;2022-08-02T11:15:56;4.60;;;0.60;;
69434;SDS011;56625;54.322;18.582;2022-08-02T11:21:26;5.90;;;0.80;;
69434;SDS011;56625;54.322;18.582;2022-08-02T11:23:56;5.60;;;0.60;;
69434;SDS011;56625;54.322;18.582;2022-08-02T11:27:07;4.00;;;0.50;;
69434;SDS011;56625;54.322;18.582;2022-08-02T11:29:44;4.40;;;0.60;;
69434;SDS011;56625;54.322;18.582;2022-08-02T11:32:23;4.30;;;0.50;;
69434;SDS011;56625;54.322;18.582;2022-08-02T11:34:57;5.50;;;0.70;;
69434;SDS011;56625;54.322;18.582;2022-08-02T11:40:09;9.10;;;1.00;;
69434;SDS011;56625;54.322;18.582;2022-08-02T11:42:47;10.90;;;1.40;;
69434;SDS011;56625;54.322;18.582;2022-08-02T11:45:24;13.40;;;1.50;;
69434;SDS011;56625;54.322;18.582;2022-08-02T11:47:56;9.50;;;1.30;;
69434;SDS011;56625;54.322;18.582;2022-08-02T11:50:25;8.90;;;1.10;;
69434;SDS011;56625;54.322;18.582;2022-08-02T11:52:57;10.10;;;1.40;;
69434;SDS011;56625;54.322;18.582;2022-08-02T11:55:29;13.10;;;1.80;;
69434;SDS011;56625;54.322;18.582;2022-08-02T11:58:02;11.00;;;1.60;;
69434;SDS011;56625;54.322;18.582;2022-08-02T12:00:32;11.90;;;2.00;;
69434;SDS011;56625;54.322;18.582;2022-08-02T12:03:00;10.00;;;1.40;;
69434;SDS011;56625;54.322;18.582;2022-08-02T12:05:28;10.40;;;1.30;;
69434;SDS011;56625;54.322;18.582;2022-08-02T12:08:18;12.20;;;1.50;;
69434;SDS011;56625;54.322;18.582;2022-08-02T12:10:51;7.60;;;1.10;;
69434;SDS011;56625;54.322;18.582;2022-08-02T12:13:19;14.20;;;2.00;;
69434;SDS011;56625;54.322;18.582;2022-08-02T12:15:47;10.90;;;1.20;;
69434;SDS011;56625;54.322;18.582;2022-08-02T12:18:19;12.30;;;1.70;;
69434;SDS011;56625;54.322;18.582;2022-08-02T12:21:20;8.40;;;1.60;;
69434;SDS011;56625;54.322;18.582;2022-08-02T12:23:51;11.10;;;1.30;;
69434;SDS011;56625;54.322;18.582;2022-08-02T12:26:28;11.50;;;1.60;;
69434;SDS011;56625;54.322;18.582;2022-08-02T12:28:57;11.20;;;1.50;;
69434;SDS011;56625;54.322;18.582;2022-08-02T12:31:43;9.90;;;1.20;;
69434;SDS011;56625;54.322;18.582;2022-08-02T12:34:25;11.10;;;1.70;;
69434;SDS011;56625;54.322;18.582;2022-08-02T12:37:05;11.70;;;1.40;;
69434;SDS011;56625;54.322;18.582;2022-08-02T12:39:41;18.60;;;2.20;;
69434;SDS011;56625;54.322;18.582;2022-08-02T12:42:12;9.70;;;1.10;;
69434;SDS011;56625;54.322;18.582;2022-08-02T12:44:53;7.60;;;1.40;;
69434;SDS011;56625;54.322;18.582;2022-08-02T12:47:22;11.60;;;1.40;;
69434;SDS011;56625;54.322;18.582;2022-08-02T12:50:31;10.40;;;1.30;;
69434;SDS011;56625;54.322;18.582;2022-08-02T12:53:07;11.00;;;1.30;;
69434;SDS011;56625;54.322;18.582;2022-08-02T12:55:54;9.20;;;1.20;;
69434;SDS011;56625;54.322;18.582;2022-08-02T12:58:26;9.00;;;1.20;;
69434;SDS011;56625;54.322;18.582;2022-08-02T13:00:58;10.60;;;1.30;;
69434;SDS011;56625;54.322;18.582;2022-08-02T13:03:27;7.20;;;1.00;;
69434;SDS011;56625;54.322;18.582;2022-08-02T13:06:16;7.90;;;1.10;;
69434;SDS011;56625;54.322;18.582;2022-08-02T13:09:14;11.00;;;1.30;;
69434;SDS011;56625;54.322;18.582;2022-08-02T13:11:44;7.90;;;1.50;;
69434;SDS011;56625;54.322;18.582;2022-08-02T13:14:13;8.50;;;1.30;;
69434;SDS011;56625;54.322;18.582;2022-08-02T13:16:44;8.80;;;1.40;;
69434;SDS011;56625;54.322;18.582;2022-08-02T13:19:13;9.60;;;1.20;;
69434;SDS011;56625;54.322;18.582;2022-08-02T13:21:43;7.70;;;1.50;;
69434;SDS011;56625;54.322;18.582;2022-08-02T13:24:31;9.40;;;1.50;;
69434;SDS011;56625;54.322;18.582;2022-08-02T13:27:19;9.20;;;2.20;;
69434;SDS011;56625;54.322;18.582;2022-08-02T13:29:49;7.20;;;1.10;;
69434;SDS011;56625;54.322;18.582;2022-08-02T13:32:19;7.10;;;1.20;;
69434;SDS011;56625;54.322;18.582;2022-08-02T13:34:47;11.20;;;1.60;;
69434;SDS011;56625;54.322;18.582;2022-08-02T13:37:18;9.80;;;1.40;;
69434;SDS011;56625;54.322;18.582;2022-08-02T13:39:46;8.60;;;1.30;;
69434;SDS011;56625;54.322;18.582;2022-08-02T13:42:34;11.70;;;2.10;;
69434;SDS011;56625;54.322;18.582;2022-08-02T13:45:03;14.10;;;1.60;;
69434;SDS011;56625;54.322;18.582;2022-08-02T13:47:42;11.40;;;1.50;;
69434;SDS011;56625;54.322;18.582;2022-08-02T13:50:31;10.80;;;1.40;;
69434;SDS011;56625;54.322;18.582;2022-08-02T13:52:59;13.60;;;1.50;;
69434;SDS011;56625;54.322;18.582;2022-08-02T13:55:27;9.20;;;1.40;;
69434;SDS011;56625;54.322;18.582;2022-08-02T13:57:55;13.30;;;1.30;;
69434;SDS011;56625;54.322;18.582;2022-08-02T14:00:23;14.50;;;1.60;;
69434;SDS011;56625;54.322;18.582;2022-08-02T14:03:04;11.30;;;1.40;;
69434;SDS011;56625;54.322;18.582;2022-08-02T14:05:42;8.00;;;1.00;;
69434;SDS011;56625;54.322;18.582;2022-08-02T14:08:16;9.80;;;1.40;;
69434;SDS011;56625;54.322;18.582;2022-08-02T14:10:46;7.60;;;1.10;;
69434;SDS011;56625;54.322;18.582;2022-08-02T14:13:15;13.50;;;1.30;;
69434;SDS011;56625;54.322;18.582;2022-08-02T14:15:46;12.90;;;1.20;;
69434;SDS011;56625;54.322;18.582;2022-08-02T14:18:14;12.20;;;1.20;;
69434;SDS011;56625;54.322;18.582;2022-08-02T14:20:43;6.90;;;0.90;;
69434;SDS011;56625;54.322;18.582;2022-08-02T14:23:11;8.70;;;0.90;;
69434;SDS011;56625;54.322;18.582;2022-08-02T14:25:39;9.30;;;0.80;;
69434;SDS011;56625;54.322;18.582;2022-08-02T14:28:07;11.10;;;1.40;;
69434;SDS011;56625;54.322;18.582;2022-08-02T14:30:35;11.30;;;1.20;;
69434;SDS011;56625;54.322;18.582;2022-08-02T14:33:04;8.10;;;1.10;;
69434;SDS011;56625;54.322;18.582;2022-08-02T14:35:32;7.80;;;1.00;;
69434;SDS011;56625;54.322;18.582;2022-08-02T14:38:00;10.20;;;1.10;;
69434;SDS011;56625;54.322;18.582;2022-08-02T14:40:28;8.70;;;1.00;;
69434;SDS011;56625;54.322;18.582;2022-08-02T14:42:59;7.40;;;0.80;;
69434;SDS011;56625;54.322;18.582;2022-08-02T14:45:28;7.20;;;0.80;;
69434;SDS011;56625;54.322;18.582;2022-08-02T14:48:09;6.20;;;1.00;;
69434;SDS011;56625;54.322;18.582;2022-08-02T14:50:38;6.60;;;0.60;;
69434;SDS011;56625;54.322;18.582;2022-08-02T14:53:06;8.70;;;1.10;;
69434;SDS011;56625;54.322;18.582;2022-08-02T14:55:40;6.90;;;0.70;;
69434;SDS011;56625;54.322;18.582;2022-08-02T14:58:10;7.60;;;1.30;;
69434;SDS011;56625;54.322;18.582;2022-08-02T15:00:39;9.20;;;0.70;;
69434;SDS011;56625;54.322;18.582;2022-08-02T15:03:10;6.30;;;0.80;;
69434;SDS011;56625;54.322;18.582;2022-08-02T15:05:39;7.00;;;0.80;;
69434;SDS011;56625;54.322;18.582;2022-08-02T15:08:07;5.40;;;0.70;;
69434;SDS011;56625;54.322;18.582;2022-08-02T15:10:35;6.80;;;0.70;;
69434;SDS011;56625;54.322;18.582;2022-08-02T15:13:03;6.30;;;0.90;;
69434;SDS011;56625;54.322;18.582;2022-08-02T15:15:31;8.50;;;0.90;;
69434;SDS011;56625;54.322;18.582;2022-08-02T15:18:10;6.50;;;0.90;;
69434;SDS011;56625;54.322;18.582;2022-08-02T15:20:39;8.70;;;0.70;;
69434;SDS011;56625;54.322;18.582;2022-08-02T15:23:24;7.20;;;0.90;;
69434;SDS011;56625;54.322;18.582;2022-08-02T15:26:04;6.50;;;0.90;;
69434;SDS011;56625;54.322;18.582;2022-08-02T15:28:33;6.30;;;0.80;;